Time;durP1;ratioP1;P1;durP2;ratioP2;P2;SDS_P1;SDS_P2;PMS_P1;PMS_P2;Temp;Humidity;BMP_temperature;BMP_pressure;BME280_temperature;BME280_humidity;BME280_pressure;Samples;Min_cycle;Max_cycle;Signal;HPM_P1;HPM_P2
2022/06/20 05:03:11;;;;;;;12.05;7.10;;;21.20;99.90;;;;;;5243660;23;20104;-78
2022/06/20 05:05:41;;;;;;;15.35;7.15;;;21.30;99.90;;;;;;4907782;29;20080;-76
2022/06/20 05:08:13;;;;;;;13.18;7.00;;;21.50;99.90;;;;;;4907491;29;20056;-76
2022/06/20 05:10:50;;;;;;;16.58;7.47;;;21.60;99.90;;;;;;4909284;29;20097;-77
2022/06/20 05:13:42;;;;;;;14.07;7.53;;;21.70;99.90;;;;;;4908805;29;20036;-77
2022/06/20 05:16:17;;;;;;;16.05;8.52;;;21.80;99.90;;;;;;4906377;29;20341;-77
2022/06/20 05:18:48;;;;;;;16.48;6.90;;;21.90;99.90;;;;;;4908235;29;20028;-77
2022/06/20 05:21:23;;;;;;;13.60;7.05;;;21.90;99.90;;;;;;4908240;29;20040;-76
2022/06/20 05:23:54;;;;;;;13.13;6.10;;;21.90;99.90;;;;;;4908988;29;20306;-77
2022/06/20 05:26:24;;;;;;;9.13;5.63;;;22.00;99.80;;;;;;4908485;29;20222;-77
2022/06/20 05:28:53;;;;;;;13.90;5.95;;;21.90;98.70;;;;;;4908383;29;20035;-75
2022/06/20 05:31:49;;;;;;;12.57;5.65;;;21.90;99.20;;;;;;4903935;29;20041;-76
2022/06/20 05:34:38;;;;;;;11.93;5.45;;;21.90;99.20;;;;;;4897047;29;20057;-75
2022/06/20 05:37:10;;;;;;;15.45;5.82;;;22.00;99.90;;;;;;4901893;29;20321;-75
2022/06/20 05:39:44;;;;;;;14.70;5.90;;;22.00;99.90;;;;;;4899061;29;20036;-75
2022/06/20 05:42:14;;;;;;;10.80;6.03;;;22.00;99.90;;;;;;4903986;29;20175;-75
2022/06/20 05:44:40;;;;;;;11.77;5.63;;;22.00;99.80;;;;;;4908100;29;20095;-76
2022/06/20 05:47:21;;;;;;;12.50;5.43;;;21.90;99.80;;;;;;4907886;29;20149;-76
2022/06/20 05:50:00;;;;;;;12.88;5.53;;;22.00;99.90;;;;;;4908439;29;20032;-75
2022/06/20 05:52:30;;;;;;;11.18;5.95;;;22.20;99.90;;;;;;4906635;29;20036;-75
2022/06/20 05:55:05;;;;;;;10.15;5.45;;;22.30;99.90;;;;;;4908502;29;20040;-75
2022/06/20 05:57:33;;;;;;;11.65;6.32;;;22.40;99.90;;;;;;4907536;29;20036;-75
2022/06/20 06:00:16;;;;;;;16.63;5.80;;;22.40;99.90;;;;;;4908168;29;20035;-75
2022/06/20 06:02:56;;;;;;;11.23;5.80;;;22.50;99.90;;;;;;4908013;29;20068;-75
2022/06/20 06:05:39;;;;;;;15.23;5.90;;;22.60;99.90;;;;;;4903730;29;20036;-74
2022/06/20 06:08:26;;;;;;;14.05;6.57;;;22.80;99.90;;;;;;4901611;29;20047;-74
2022/06/20 06:10:55;;;;;;;11.27;6.22;;;22.80;99.60;;;;;;4906679;29;20062;-75
2022/06/20 06:13:46;;;;;;;11.52;6.28;;;22.80;99.90;;;;;;4906088;29;20067;-75
2022/06/20 06:19:21;;;;;;;10.67;6.23;;;22.90;98.40;;;;;;4906267;29;20040;-75
2022/06/20 06:21:48;;;;;;;12.85;6.05;;;22.90;98.70;;;;;;4905337;29;20481;-75
2022/06/20 06:24:18;;;;;;;12.32;5.85;;;23.00;99.40;;;;;;4904882;29;20040;-75
2022/06/20 06:26:46;;;;;;;14.25;6.07;;;23.30;97.60;;;;;;4906551;29;20048;-75
2022/06/20 06:29:23;;;;;;;13.75;6.28;;;23.50;98.40;;;;;;4906073;29;20041;-75
2022/06/20 06:31:54;;;;;;;15.50;6.68;;;23.50;98.20;;;;;;4904553;29;20044;-75
2022/06/20 06:34:28;;;;;;;15.50;7.07;;;23.50;97.50;;;;;;4905749;29;20029;-75
2022/06/20 06:37:03;;;;;;;15.20;7.07;;;23.50;97.70;;;;;;4906582;29;20471;-75
2022/06/20 06:39:40;;;;;;;12.52;7.10;;;23.50;97.00;;;;;;4885908;29;20104;-76
2022/06/20 06:42:13;;;;;;;13.30;7.03;;;23.50;97.40;;;;;;4886512;29;20047;-75
2022/06/20 06:44:43;;;;;;;15.25;7.25;;;23.60;97.40;;;;;;4887840;29;20028;-75
2022/06/20 06:47:36;;;;;;;12.50;6.47;;;23.90;97.10;;;;;;4886091;29;20145;-75
2022/06/20 06:50:17;;;;;;;14.07;6.60;;;24.30;96.00;;;;;;4887904;29;20056;-76
2022/06/20 06:52:53;;;;;;;19.58;7.35;;;24.70;93.70;;;;;;4887603;29;20220;-77
2022/06/20 06:55:54;;;;;;;15.02;7.15;;;24.90;93.30;;;;;;4885574;29;20036;-75
2022/06/20 06:58:40;;;;;;;18.45;7.30;;;24.90;92.90;;;;;;4886773;29;20041;-76
2022/06/20 07:01:09;;;;;;;9.60;6.38;;;24.80;92.90;;;;;;4887056;29;20101;-75
2022/06/20 07:03:52;;;;;;;15.38;6.30;;;24.70;93.00;;;;;;4887082;29;20052;-75
2022/06/20 07:06:26;;;;;;;12.30;6.25;;;24.40;93.10;;;;;;4900994;29;20036;-75
2022/06/20 07:09:22;;;;;;;12.85;5.82;;;24.40;92.50;;;;;;4906081;29;20039;-75
2022/06/20 07:12:04;;;;;;;11.02;6.40;;;24.40;92.90;;;;;;4882045;29;20053;-76
2022/06/20 07:14:33;;;;;;;12.40;5.95;;;24.50;93.30;;;;;;4887282;29;20045;-76
2022/06/20 07:17:15;;;;;;;15.50;6.35;;;24.40;93.10;;;;;;4886775;29;20048;-76
2022/06/20 07:19:47;;;;;;;13.75;6.57;;;24.50;93.20;;;;;;4887260;29;20361;-75
2022/06/20 07:22:15;;;;;;;12.90;6.50;;;24.60;93.00;;;;;;4887217;29;20308;-75
2022/06/20 07:24:41;;;;;;;15.40;6.33;;;24.80;92.60;;;;;;4887328;29;20044;-74
2022/06/20 07:27:22;;;;;;;13.50;7.65;;;25.10;92.10;;;;;;4887333;29;20438;-77
2022/06/20 07:29:55;;;;;;;18.83;6.50;;;25.20;91.30;;;;;;4887179;29;20226;-75
2022/06/20 07:32:30;;;;;;;18.38;7.40;;;25.30;90.90;;;;;;4886629;29;20088;-76
2022/06/20 07:35:01;;;;;;;12.73;6.10;;;25.50;91.20;;;;;;4887368;29;20041;-76
2022/06/20 07:38:00;;;;;;;13.18;7.10;;;25.60;91.20;;;;;;4885883;29;20196;-76
2022/06/20 07:41:01;;;;;;;15.32;6.40;;;25.70;90.30;;;;;;4891340;29;20036;-76
2022/06/20 07:43:52;;;;;;;16.67;6.85;;;25.80;90.40;;;;;;4893826;29;20049;-76
2022/06/20 07:46:32;;;;;;;12.55;6.07;;;25.70;89.70;;;;;;4905324;29;20051;-75
2022/06/20 07:49:03;;;;;;;8.82;5.55;;;25.90;90.00;;;;;;4906162;29;20045;-75
2022/06/20 07:51:36;;;;;;;13.60;5.95;;;26.10;88.10;;;;;;4909483;29;20100;-74
2022/06/20 07:54:24;;;;;;;14.40;6.43;;;26.20;87.20;;;;;;4910747;29;20036;-75
2022/06/20 07:57:01;;;;;;;16.40;6.32;;;26.30;87.90;;;;;;4909883;29;20060;-75
2022/06/20 07:59:38;;;;;;;13.60;6.00;;;26.30;86.80;;;;;;4915761;29;20040;-75
2022/06/20 08:02:13;;;;;;;14.90;6.22;;;26.40;87.10;;;;;;4918917;29;20061;-75
2022/06/20 08:04:41;;;;;;;11.93;5.35;;;26.50;85.20;;;;;;4919386;29;20047;-75
2022/06/20 08:07:10;;;;;;;13.80;5.22;;;26.80;85.20;;;;;;4915825;29;20032;-76
2022/06/20 08:09:52;;;;;;;11.68;5.95;;;27.00;84.60;;;;;;4908867;29;20047;-75
2022/06/20 08:12:29;;;;;;;12.40;5.35;;;27.10;83.50;;;;;;4908362;29;20218;-76
2022/06/20 08:14:58;;;;;;;12.80;4.43;;;27.40;83.30;;;;;;4908936;29;20033;-76
2022/06/20 08:17:25;;;;;;;15.48;5.70;;;27.40;82.10;;;;;;4906840;29;20092;-76
2022/06/20 08:19:51;;;;;;;13.57;5.50;;;27.50;81.90;;;;;;4909141;29;20103;-76
2022/06/20 08:22:47;;;;;;;15.40;6.20;;;27.50;81.10;;;;;;4908804;29;20034;-77
2022/06/20 08:25:23;;;;;;;13.07;5.70;;;27.30;82.50;;;;;;4909094;29;20137;-76
2022/06/20 08:28:04;;;;;;;12.88;5.55;;;27.10;81.30;;;;;;4907553;29;20044;-76
2022/06/20 08:30:53;;;;;;;11.70;4.80;;;27.00;79.40;;;;;;4907988;29;20048;-76
2022/06/20 08:33:36;;;;;;;8.55;4.40;;;26.90;77.90;;;;;;4908346;29;20032;-76
2022/06/20 08:36:13;;;;;;;18.58;4.65;;;26.90;78.10;;;;;;4909081;29;20040;-76
2022/06/20 08:38:45;;;;;;;15.68;4.78;;;27.00;78.00;;;;;;4908465;29;20137;-76
2022/06/20 08:41:47;;;;;;;10.25;4.72;;;26.90;77.70;;;;;;4908943;29;20252;-76
2022/06/20 08:44:28;;;;;;;14.77;4.95;;;26.70;78.10;;;;;;4904313;29;20033;-75
2022/06/20 08:47:31;;;;;;;12.20;4.65;;;26.70;78.40;;;;;;4889579;29;20044;-76
2022/06/20 08:50:18;;;;;;;9.30;4.53;;;26.90;77.30;;;;;;4889481;29;20191;-76
2022/06/20 08:53:44;;;;;;;14.25;5.15;;;26.90;76.10;;;;;;4889774;29;20056;-76
2022/06/20 08:56:24;;;;;;;10.25;4.68;;;26.90;75.60;;;;;;4889339;29;20033;-76
2022/06/20 08:59:02;;;;;;;11.25;4.78;;;26.70;75.20;;;;;;4889284;29;20045;-76
2022/06/20 09:01:37;;;;;;;10.25;4.68;;;26.80;75.90;;;;;;4888454;29;20048;-76
2022/06/20 09:04:23;;;;;;;9.48;4.63;;;27.00;75.30;;;;;;4888772;29;20064;-76
2022/06/20 09:07:39;;;;;;;10.80;4.65;;;26.90;75.80;;;;;;4907059;29;20024;-77
2022/06/20 09:10:11;;;;;;;8.50;4.38;;;27.00;76.00;;;;;;4887307;29;20049;-77
2022/06/20 09:12:55;;;;;;;9.75;4.63;;;27.20;75.10;;;;;;4885108;29;20120;-77
2022/06/20 09:15:48;;;;;;;10.77;5.28;;;27.40;74.90;;;;;;4887989;29;20036;-77
2022/06/20 09:18:35;;;;;;;12.00;4.75;;;27.50;75.00;;;;;;4889168;29;20037;-77
2022/06/20 09:21:15;;;;;;;12.00;5.10;;;27.50;74.00;;;;;;4889132;29;20322;-77
2022/06/20 09:23:57;;;;;;;10.15;4.85;;;27.50;74.40;;;;;;4889150;29;20041;-77
2022/06/20 09:26:51;;;;;;;12.70;4.60;;;27.60;73.80;;;;;;4888613;29;20060;-80
2022/06/20 09:29:46;;;;;;;10.65;4.65;;;27.80;73.80;;;;;;4888841;29;20130;-77
2022/06/20 09:32:21;;;;;;;10.45;5.40;;;28.00;73.30;;;;;;4887932;29;20036;-77
2022/06/20 09:35:17;;;;;;;10.57;4.97;;;28.00;72.90;;;;;;4888930;29;20037;-77
2022/06/20 09:38:04;;;;;;;10.98;4.70;;;27.90;72.70;;;;;;4888953;29;20032;-78
2022/06/20 09:40:36;;;;;;;9.85;4.40;;;28.20;72.50;;;;;;4888564;29;20037;-78
2022/06/20 09:43:29;;;;;;;7.28;4.60;;;28.40;72.40;;;;;;4889725;29;20128;-77
2022/06/20 09:46:04;;;;;;;8.60;4.28;;;28.70;71.50;;;;;;4888353;29;20101;-76
2022/06/20 09:48:38;;;;;;;9.02;4.53;;;28.90;71.40;;;;;;4888291;29;20040;-75
2022/06/20 09:51:26;;;;;;;9.63;4.53;;;29.10;69.90;;;;;;4888815;29;20036;-76
2022/06/20 09:54:19;;;;;;;11.68;4.95;;;29.40;70.40;;;;;;4884643;29;20037;-76
2022/06/20 09:57:23;;;;;;;7.05;3.83;;;29.90;69.40;;;;;;4884803;29;20041;-76
2022/06/20 09:59:57;;;;;;;8.75;4.20;;;30.30;68.50;;;;;;4881408;29;20411;-78
2022/06/20 10:02:40;;;;;;;10.43;4.03;;;30.40;67.20;;;;;;4883609;29;20082;-78
2022/06/20 10:05:32;;;;;;;10.40;4.13;;;30.30;67.70;;;;;;4873701;29;20066;-79
2022/06/20 10:08:23;;;;;;;9.38;4.30;;;30.50;67.30;;;;;;4886128;29;20041;-79
2022/06/20 10:11:17;;;;;;;13.27;5.03;;;30.80;66.50;;;;;;4886227;29;20039;-82
2022/06/20 10:13:57;;;;;;;10.45;4.15;;;30.80;66.40;;;;;;4875864;29;20064;-78
2022/06/20 10:17:03;;;;;;;11.35;4.82;;;30.70;66.60;;;;;;4886858;29;20121;-79
2022/06/20 10:20:10;;;;;;;8.20;3.78;;;30.80;66.60;;;;;;4886328;29;20261;-78
2022/06/20 10:22:50;;;;;;;11.02;4.10;;;31.20;65.60;;;;;;4865700;29;20287;-78
2022/06/20 10:25:28;;;;;;;9.70;4.30;;;31.10;65.50;;;;;;4885050;29;20040;-78
2022/06/20 10:28:11;;;;;;;10.48;4.53;;;31.00;65.60;;;;;;4887431;29;20049;-79
2022/06/20 10:30:53;;;;;;;9.02;4.05;;;31.10;65.30;;;;;;4886563;29;20083;-78
2022/06/20 10:33:30;;;;;;;10.02;4.03;;;31.00;66.00;;;;;;4886637;29;20268;-79
2022/06/20 10:36:21;;;;;;;11.93;4.15;;;31.20;65.60;;;;;;4887306;29;20039;-79
2022/06/20 10:39:06;;;;;;;8.77;3.55;;;31.30;65.30;;;;;;4885623;29;20041;-79
2022/06/20 10:41:45;;;;;;;8.05;3.88;;;31.10;64.80;;;;;;4886846;29;20035;-79
2022/06/20 10:44:22;;;;;;;18.15;5.18;;;31.10;64.50;;;;;;4883169;29;20029;-81
2022/06/20 10:47:07;;;;;;;9.07;3.67;;;30.90;64.80;;;;;;4882496;29;20105;-78
2022/06/20 10:50:09;;;;;;;10.23;4.07;;;30.90;65.60;;;;;;4882510;29;20056;-78
2022/06/20 10:52:56;;;;;;;8.45;3.45;;;31.00;65.70;;;;;;4868292;29;20060;-79
2022/06/20 10:55:34;;;;;;;8.53;3.80;;;30.90;65.10;;;;;;4867308;29;20048;-80
2022/06/20 10:58:17;;;;;;;9.95;3.30;;;30.80;65.40;;;;;;4868715;29;20041;-79
2022/06/20 11:00:55;;;;;;;9.25;3.70;;;31.00;63.00;;;;;;4868221;29;20037;-78
2022/06/20 11:03:27;;;;;;;;;;;31.20;63.30;;;;;;4866787;29;20055;-78
2022/06/20 11:06:17;;;;;;;8.95;2.90;;;30.90;62.20;;;;;;4867105;29;20105;-78
2022/06/20 11:09:00;;;;;;;7.35;3.33;;;31.10;63.40;;;;;;4867023;29;20037;-80
2022/06/20 11:11:38;;;;;;;10.20;4.05;;;31.30;61.60;;;;;;4884356;29;20064;-80
2022/06/20 11:14:23;;;;;;;7.73;3.80;;;31.20;64.00;;;;;;4887136;29;20327;-80
2022/06/20 11:17:06;;;;;;;9.65;3.75;;;31.00;63.50;;;;;;4886410;29;20475;-82
2022/06/20 11:19:41;;;;;;;11.57;3.88;;;30.80;64.30;;;;;;4885287;29;20045;-79
2022/06/20 11:22:43;;;;;;;11.43;4.13;;;30.60;64.90;;;;;;4886938;29;20223;-78
2022/06/20 11:25:46;;;;;;;8.52;3.70;;;30.40;65.30;;;;;;4885192;29;20041;-79
2022/06/20 11:28:53;;;;;;;9.93;4.18;;;30.30;65.60;;;;;;4891024;29;20283;-80
2022/06/20 11:31:33;;;;;;;9.77;4.38;;;29.90;65.80;;;;;;4899828;29;20040;-78
2022/06/20 11:34:29;;;;;;;11.05;4.25;;;29.60;67.20;;;;;;4909021;29;20039;-79
2022/06/20 11:37:06;;;;;;;9.77;4.00;;;29.50;67.50;;;;;;4909451;29;20036;-79
2022/06/20 11:40:06;;;;;;;19.65;4.53;;;29.80;67.10;;;;;;4908854;29;20031;-80
2022/06/20 11:42:45;;;;;;;13.32;4.20;;;29.60;67.20;;;;;;4908689;29;20346;-79
2022/06/20 11:45:29;;;;;;;10.77;3.90;;;29.80;66.60;;;;;;4908995;29;20040;-80
2022/06/20 11:48:15;;;;;;;11.63;4.05;;;30.00;66.20;;;;;;4907581;29;20049;-79
2022/06/20 11:50:50;;;;;;;13.57;4.15;;;30.60;65.20;;;;;;4907932;29;20033;-81
2022/06/20 11:53:36;;;;;;;16.40;3.85;;;31.90;63.10;;;;;;4908537;29;20040;-80
2022/06/20 11:56:11;;;;;;;6.95;3.88;;;31.90;62.90;;;;;;4908994;29;20047;-80
2022/06/20 11:58:58;;;;;;;10.98;3.67;;;31.70;63.20;;;;;;4908123;29;20299;-80
2022/06/20 12:01:36;;;;;;;11.00;3.45;;;31.00;64.00;;;;;;4907822;29;20138;-80
2022/06/20 12:04:12;;;;;;;6.80;3.47;;;30.40;64.30;;;;;;4908663;29;20059;-78
2022/06/20 12:07:15;;;;;;;8.25;3.50;;;29.80;66.00;;;;;;4908514;29;20029;-79
2022/06/20 12:09:59;;;;;;;7.75;3.63;;;29.90;66.60;;;;;;4907946;29;20067;-80
2022/06/20 12:12:35;;;;;;;6.55;3.00;;;31.20;64.40;;;;;;4908572;29;20093;-79
2022/06/20 12:15:36;;;;;;;9.38;3.42;;;31.90;63.40;;;;;;4907343;29;20040;-79
2022/06/20 12:18:14;;;;;;;7.75;2.97;;;32.70;61.80;;;;;;4850336;29;20061;-78
2022/06/20 12:23:42;;;;;;;7.00;2.67;;;30.90;63.00;;;;;;4870621;29;20036;-79
2022/06/20 12:26:21;;;;;;;6.93;2.30;;;29.80;63.50;;;;;;4886182;29;20040;-78
2022/06/20 12:28:50;;;;;;;5.60;2.30;;;29.80;64.00;;;;;;4870759;29;20351;-82
2022/06/20 12:35:55;;;;;;;9.95;3.53;;;30.50;63.30;;;;;;4871188;29;20169;-79
2022/06/20 12:38:55;;;;;;;8.00;3.30;;;32.50;62.90;;;;;;4870523;29;20045;-79
2022/06/20 12:41:24;;;;;;;10.48;3.47;;;34.10;60.60;;;;;;4871636;29;20056;-79
2022/06/20 12:44:04;;;;;;;7.18;3.10;;;35.70;57.80;;;;;;4872344;29;20104;-78
2022/06/20 12:46:52;;;;;;;9.70;3.63;;;35.60;57.80;;;;;;4873463;29;20321;-79
2022/06/20 12:49:43;;;;;;;6.45;3.03;;;33.80;58.80;;;;;;4873638;29;20048;-80
2022/06/20 12:52:16;;;;;;;8.05;3.08;;;32.60;61.30;;;;;;4887916;29;20037;-79
2022/06/20 12:54:57;;;;;;;10.25;3.08;;;31.80;62.70;;;;;;4871287;29;20038;-82
2022/06/20 12:57:41;;;;;;;9.30;3.08;;;31.10;64.00;;;;;;4869404;29;20029;-79
2022/06/20 13:00:44;;;;;;;10.60;3.42;;;31.10;64.50;;;;;;4869108;29;20033;-79
2022/06/20 13:03:16;;;;;;;7.53;3.28;;;30.90;64.60;;;;;;4870626;29;20084;-79
2022/06/20 13:06:02;;;;;;;10.60;3.72;;;30.90;64.50;;;;;;4870481;29;20041;-78
2022/06/20 13:08:54;;;;;;;9.70;3.10;;;30.70;65.00;;;;;;4870652;29;20041;-79
2022/06/20 13:11:35;;;;;;;9.23;3.40;;;30.40;65.30;;;;;;4869956;29;20033;-79
2022/06/20 13:14:33;;;;;;;11.50;3.38;;;30.20;66.30;;;;;;4870295;29;20049;-79
2022/06/20 13:17:32;;;;;;;11.82;3.97;;;29.80;66.80;;;;;;4869748;29;20049;-79
2022/06/20 13:20:17;;;;;;;9.50;3.80;;;29.40;67.40;;;;;;4869859;29;20041;-79
2022/06/20 13:23:15;;;;;;;8.73;3.40;;;29.20;68.60;;;;;;4870115;29;20100;-80
2022/06/20 13:25:52;;;;;;;9.30;3.58;;;29.30;68.20;;;;;;4869615;29;20025;-82
2022/06/20 13:28:36;;;;;;;9.50;3.58;;;29.10;68.40;;;;;;4897520;29;20048;-80
2022/06/20 13:31:18;;;;;;;7.75;3.33;;;28.70;69.40;;;;;;4896137;29;20051;-78
2022/06/20 13:34:03;;;;;;;8.32;3.22;;;28.30;70.30;;;;;;4937369;29;20341;-78
2022/06/20 13:36:54;;;;;;;7.47;3.42;;;27.90;71.40;;;;;;4922056;29;20068;-79
2022/06/20 13:39:40;;;;;;;11.95;3.85;;;27.70;72.30;;;;;;4892753;29;20124;-81
2022/06/20 13:42:22;;;;;;;9.93;3.25;;;27.70;72.40;;;;;;4888779;29;20108;-79
2022/06/20 13:44:56;;;;;;;7.82;3.42;;;27.40;73.20;;;;;;4890747;29;20199;-79
2022/06/20 13:47:28;;;;;;;8.52;3.88;;;27.10;74.00;;;;;;4894176;29;20045;-81
2022/06/20 13:50:20;;;;;;;6.45;3.08;;;27.10;74.20;;;;;;4888257;29;20066;-79
2022/06/20 13:53:18;;;;;;;10.63;3.10;;;27.10;74.60;;;;;;4889091;29;20041;-79
2022/06/20 13:56:10;;;;;;;7.88;2.72;;;27.20;74.20;;;;;;4907775;29;20427;-80
2022/06/20 13:59:14;;;;;;;6.38;2.75;;;27.10;74.00;;;;;;4908253;29;20040;-81
2022/06/20 14:02:22;;;;;;;9.05;2.75;;;27.00;74.50;;;;;;4896863;29;20044;-80
2022/06/20 14:04:48;;;;;;;6.00;2.83;;;26.60;75.30;;;;;;4905601;29;20360;-79
2022/06/20 14:07:31;;;;;;;4.70;2.80;;;26.50;75.80;;;;;;4907883;29;20100;-82
2022/06/20 14:09:59;;;;;;;6.88;2.63;;;26.40;76.00;;;;;;4887342;29;20108;-81
2022/06/20 14:12:27;;;;;;;4.75;2.55;;;26.50;75.90;;;;;;4888078;29;20029;-80
2022/06/20 14:15:06;;;;;;;7.30;2.75;;;26.30;76.30;;;;;;4903240;29;20040;-81
2022/06/20 14:17:39;;;;;;;5.90;2.78;;;26.20;76.80;;;;;;4892831;29;20048;-82
2022/06/20 14:20:19;;;;;;;5.28;2.63;;;25.90;77.60;;;;;;4887804;29;20025;-80
2022/06/20 14:22:48;;;;;;;4.45;2.65;;;25.90;77.60;;;;;;4903096;29;20040;-79
2022/06/20 14:25:45;;;;;;;5.18;2.85;;;25.90;77.80;;;;;;4907671;29;20039;-79
2022/06/20 14:28:21;;;;;;;7.25;2.78;;;26.10;77.50;;;;;;4903704;29;20127;-80
2022/06/20 14:30:52;;;;;;;6.28;2.88;;;26.30;76.40;;;;;;4906820;29;20039;-81
2022/06/20 14:33:42;;;;;;;7.15;2.70;;;26.30;76.50;;;;;;4907832;29;20401;-81
2022/06/20 14:36:07;;;;;;;5.93;2.65;;;26.70;75.50;;;;;;4906575;29;20040;-80
2022/06/20 14:38:45;;;;;;;5.55;2.42;;;26.80;74.60;;;;;;4907856;29;20140;-80
2022/06/20 14:44:08;;;;;;;4.75;2.47;;;26.80;75.00;;;;;;4905940;29;20111;-81
2022/06/20 14:46:55;;;;;;;4.03;2.20;;;26.50;75.40;;;;;;4906880;29;20048;-80
2022/06/20 14:49:32;;;;;;;5.68;2.22;;;26.60;75.80;;;;;;4906128;29;20093;-81
2022/06/20 14:52:25;;;;;;;6.45;2.15;;;26.90;75.70;;;;;;4905596;29;20040;-79
2022/06/20 14:55:05;;;;;;;5.03;2.30;;;27.30;74.10;;;;;;4905712;29;20037;-80
2022/06/20 14:57:48;;;;;;;5.30;2.38;;;27.80;72.90;;;;;;4906069;29;20306;-80
2022/06/20 15:00:30;;;;;;;6.55;2.35;;;28.20;72.10;;;;;;4905133;29;20032;-81
2022/06/20 15:03:01;;;;;;;4.53;2.10;;;27.90;72.00;;;;;;4905220;29;20052;-81
2022/06/20 15:05:30;;;;;;;4.15;2.28;;;28.00;72.30;;;;;;4906372;29;20063;-79
2022/06/20 15:08:08;;;;;;;5.13;2.20;;;27.90;72.00;;;;;;4906611;29;20040;-81
2022/06/20 15:10:46;;;;;;;3.88;2.08;;;27.90;72.30;;;;;;4887253;29;20037;-80
2022/06/20 15:13:40;;;;;;;4.72;2.20;;;28.70;71.60;;;;;;4888488;29;20092;-80
2022/06/20 15:16:16;;;;;;;5.55;2.20;;;31.00;66.10;;;;;;4887008;29;20041;-81
2022/06/20 15:19:14;;;;;;;4.88;2.20;;;31.10;64.60;;;;;;4888383;29;20315;-81
2022/06/20 15:21:57;;;;;;;5.43;1.90;;;30.10;66.30;;;;;;4887224;29;20104;-81
2022/06/20 15:24:46;;;;;;;4.78;1.90;;;29.60;67.80;;;;;;4887242;29;20053;-81
2022/06/20 15:27:21;;;;;;;5.90;2.25;;;29.50;68.20;;;;;;4871610;29;20161;-81
2022/06/20 15:30:18;;;;;;;4.90;1.80;;;29.60;68.50;;;;;;4887750;29;20045;-79
2022/06/20 15:32:45;;;;;;;4.70;2.05;;;29.40;68.60;;;;;;4902577;29;20128;-79
2022/06/20 15:35:14;;;;;;;4.30;1.95;;;29.40;68.70;;;;;;4886960;29;20025;-79
2022/06/20 15:37:41;;;;;;;5.00;2.17;;;29.40;68.50;;;;;;4886730;29;20041;-79
2022/06/20 15:40:19;;;;;;;7.07;2.20;;;29.10;68.90;;;;;;4902229;29;20052;-79
2022/06/20 15:42:48;;;;;;;6.63;2.20;;;28.70;69.90;;;;;;4886942;29;20218;-79
2022/06/20 15:45:39;;;;;;;4.65;2.33;;;28.80;70.00;;;;;;4902024;29;20040;-78
2022/06/20 15:48:32;;;;;;;3.95;1.73;;;28.70;70.00;;;;;;4887586;29;20092;-78
2022/06/20 15:51:02;;;;;;;4.38;2.20;;;28.70;69.80;;;;;;4901877;29;20048;-80
2022/06/20 15:53:49;;;;;;;6.03;2.13;;;28.50;70.20;;;;;;4888287;29;20219;-78
2022/06/20 15:56:42;;;;;;;4.70;1.95;;;28.70;70.10;;;;;;4872100;29;20077;-79
2022/06/20 15:59:07;;;;;;;6.20;1.98;;;31.10;65.50;;;;;;4887010;29;20091;-78
2022/06/20 16:01:45;;;;;;;9.90;1.85;;;32.00;63.00;;;;;;4886362;29;20044;-78
2022/06/20 16:04:18;;;;;;;3.78;1.70;;;31.30;63.80;;;;;;4902008;29;20083;-78
2022/06/20 16:06:52;;;;;;;5.05;2.25;;;30.30;65.60;;;;;;4887630;29;20171;-78
2022/06/20 16:09:43;;;;;;;4.28;1.92;;;29.40;67.80;;;;;;4874758;29;20063;-78
2022/06/20 16:12:13;;;;;;;3.88;2.17;;;29.10;68.40;;;;;;4891082;29;20033;-78
2022/06/20 16:15:06;;;;;;;3.63;1.90;;;29.00;68.80;;;;;;4910500;29;20048;-79
2022/06/20 16:17:44;;;;;;;4.63;1.90;;;30.40;66.20;;;;;;4908980;29;20402;-79
2022/06/20 16:20:11;;;;;;;;;;;30.40;65.70;;;;;;4910553;29;20035;-80
2022/06/20 16:22:43;;;;;;;6.23;1.87;;;29.70;67.40;;;;;;4909100;29;20078;-79
2022/06/20 16:25:15;;;;;;;3.80;2.08;;;29.10;68.10;;;;;;4910390;29;20080;-79
2022/06/20 16:27:42;;;;;;;4.15;2.20;;;28.50;69.90;;;;;;4909121;29;20048;-77
2022/06/20 16:30:24;;;;;;;4.85;2.20;;;28.50;69.40;;;;;;4907772;29;20048;-78
2022/06/20 16:33:17;;;;;;;6.00;2.75;;;28.00;70.30;;;;;;4909683;29;20039;-78
2022/06/20 16:35:44;;;;;;;5.95;2.60;;;27.70;71.60;;;;;;4910026;29;20036;-79
2022/06/20 16:38:23;;;;;;;3.13;2.10;;;27.20;72.10;;;;;;4908509;29;20056;-79
2022/06/20 16:40:59;;;;;;;3.63;2.22;;;26.90;73.70;;;;;;4908249;29;20214;-80
2022/06/20 16:43:42;;;;;;;4.60;2.38;;;26.50;73.90;;;;;;4924551;29;20092;-79
2022/06/20 16:46:21;;;;;;;3.65;2.38;;;26.00;74.70;;;;;;4907579;29;20330;-79
2022/06/20 16:48:48;;;;;;;3.83;2.20;;;25.70;75.80;;;;;;4909954;29;20186;-79
2022/06/20 16:51:17;;;;;;;6.25;2.53;;;25.40;76.80;;;;;;4908487;29;20371;-79
2022/06/20 16:54:13;;;;;;;5.28;2.40;;;25.20;76.90;;;;;;4909971;29;20044;-78
2022/06/20 16:56:58;;;;;;;3.97;2.17;;;25.10;77.10;;;;;;4909469;29;20080;-78
2022/06/20 17:00:11;;;;;;;4.72;2.50;;;25.00;77.10;;;;;;4909806;29;20108;-79
2022/06/20 17:04:11;;;;;;;;;;;;;;;;;;;;;
2022/06/20 17:07:52;;;;;;;5.35;2.47;;;26.90;73.20;;;;;;4797242;30;20059;-78
2022/06/20 17:37:34;;;;;;;5.50;2.47;;;24.50;76.50;;;;;;5199525;23;20357;-77
2022/06/20 17:40:25;;;;;;;4.25;2.20;;;24.30;77.20;;;;;;4959325;29;20046;-79
2022/06/20 17:43:02;;;;;;;2.80;2.08;;;24.00;77.50;;;;;;4956306;29;20035;-79
2022/06/20 17:45:40;;;;;;;3.90;2.30;;;23.80;78.40;;;;;;4966296;28;20054;-79
2022/06/20 17:48:16;;;;;;;3.58;2.30;;;23.80;78.60;;;;;;4948633;29;20162;-79
2022/06/20 17:51:13;;;;;;;3.50;2.00;;;23.60;78.50;;;;;;4949461;29;20332;-78
2022/06/20 17:54:05;;;;;;;4.57;2.45;;;23.40;79.40;;;;;;4949498;29;20079;-78
2022/06/20 17:56:39;;;;;;;4.70;1.88;;;23.50;79.70;;;;;;4966335;29;20104;-78
2022/06/20 17:59:23;;;;;;;3.40;2.05;;;24.80;76.10;;;;;;4965314;29;20221;-80
2022/06/20 18:02:06;;;;;;;4.07;1.90;;;26.40;71.80;;;;;;4964750;28;20093;-77
2022/06/20 18:04:37;;;;;;;2.70;1.60;;;27.30;69.00;;;;;;4965724;29;20035;-80
2022/06/20 18:07:10;;;;;;;3.15;1.67;;;28.10;67.20;;;;;;4965245;29;20309;-79
2022/06/20 18:09:55;;;;;;;2.42;1.50;;;29.00;65.40;;;;;;4962187;29;20031;-79
2022/06/20 18:12:38;;;;;;;2.72;1.70;;;28.80;64.80;;;;;;4929053;29;20031;-78
2022/06/20 18:15:16;;;;;;;2.60;1.52;;;27.90;66.50;;;;;;4945442;29;20057;-79
2022/06/20 18:18:21;;;;;;;4.18;1.50;;;26.50;69.30;;;;;;4946330;29;20028;-80
2022/06/20 18:20:59;;;;;;;3.55;1.60;;;25.40;72.40;;;;;;4946173;29;20028;-78
2022/06/20 18:23:33;;;;;;;3.58;1.90;;;24.50;75.20;;;;;;4946277;29;20027;-78
2022/06/20 18:26:17;;;;;;;3.25;1.65;;;23.90;77.30;;;;;;4928927;29;20217;-79
2022/06/20 18:28:47;;;;;;;2.88;1.88;;;23.50;78.30;;;;;;4930179;29;20049;-79
2022/06/20 18:31:21;;;;;;;3.00;1.80;;;23.30;79.00;;;;;;4948647;29;20044;-78
2022/06/20 18:33:51;;;;;;;5.55;2.03;;;22.90;80.30;;;;;;4944556;29;20036;-80
2022/06/20 18:36:23;;;;;;;4.07;1.73;;;22.70;81.10;;;;;;4943495;29;20052;-78
2022/06/20 18:39:21;;;;;;;4.35;1.83;;;22.40;81.90;;;;;;4960508;29;20044;-80
2022/06/20 18:42:02;;;;;;;4.90;2.03;;;22.20;83.00;;;;;;4964713;29;20023;-81
2022/06/20 18:44:40;;;;;;;3.70;1.73;;;22.10;83.50;;;;;;4946765;29;20050;-76
2022/06/20 18:47:32;;;;;;;4.15;1.83;;;21.90;84.10;;;;;;4949209;29;20047;-79
2022/06/20 18:50:13;;;;;;;4.50;1.90;;;21.80;84.50;;;;;;4889097;29;20065;-78
2022/06/20 18:53:03;;;;;;;4.47;1.45;;;21.80;85.00;;;;;;4944682;29;20404;-78
2022/06/20 18:55:54;;;;;;;4.53;1.65;;;21.70;85.10;;;;;;4944607;29;20067;-80
2022/06/20 19:03:02;;;;;;;;;;;;;;;;;;;;;
2022/06/20 19:13:21;;;;;;;2.63;1.65;;;21.20;85.80;;;;;;4895417;29;20033;-79
2022/06/20 19:15:56;;;;;;;3.60;1.50;;;21.10;85.90;;;;;;4885991;29;20033;-78
2022/06/20 19:18:46;;;;;;;3.50;1.77;;;21.00;86.30;;;;;;4898598;29;20043;-77
2022/06/20 19:21:29;;;;;;;2.10;1.30;;;20.80;86.50;;;;;;4903835;29;20326;-78
2022/06/20 19:24:01;;;;;;;2.65;1.55;;;20.80;86.20;;;;;;4904819;29;20048;-78
2022/06/20 19:26:35;;;;;;;2.90;1.60;;;20.80;85.80;;;;;;4904220;29;20028;-78
2022/06/20 19:29:19;;;;;;;2.05;1.40;;;20.70;85.70;;;;;;4903892;29;20037;-77
2022/06/20 19:31:51;;;;;;;2.40;1.23;;;20.60;85.30;;;;;;4903301;29;20334;-78
2022/06/20 19:34:28;;;;;;;3.50;1.60;;;20.50;85.50;;;;;;4904205;29;20036;-77
2022/06/20 19:37:00;;;;;;;1.92;1.23;;;20.50;85.30;;;;;;4905812;29;20086;-77
2022/06/20 19:39:35;;;;;;;2.25;1.30;;;20.50;85.70;;;;;;4888706;29;20052;-77
2022/06/20 19:42:10;;;;;;;2.80;1.65;;;20.40;85.50;;;;;;4903876;29;20048;-79
2022/06/20 19:44:47;;;;;;;7.60;1.83;;;20.40;85.30;;;;;;4904118;29;20041;-78
2022/06/20 19:48:00;;;;;;;2.40;1.20;;;20.30;85.20;;;;;;4904253;29;20037;-77
2022/06/20 19:50:31;;;;;;;2.72;1.23;;;20.30;85.10;;;;;;4860762;29;20355;-78
2022/06/20 19:53:16;;;;;;;3.63;1.73;;;20.30;85.30;;;;;;4857909;29;20327;-79
2022/06/20 19:55:47;;;;;;;3.22;1.50;;;20.30;85.60;;;;;;4873378;29;20188;-77